createdAt,value
2023-03-25T00:00:33.315Z,50.62
2023-03-25T00:03:04.571Z,50.33
2023-03-25T00:05:33.111Z,50.20
2023-03-25T00:08:01.231Z,49.91
2023-03-25T00:10:30.392Z,49.67
2023-03-25T00:13:04.833Z,49.55
2023-03-25T00:15:42.887Z,49.35
2023-03-25T00:18:11.086Z,48.80
2023-03-25T00:20:41.050Z,48.78
2023-03-25T00:23:10.437Z,48.52
2023-03-25T00:25:39.676Z,48.38
2023-03-25T00:28:08.554Z,48.18
2023-03-25T00:30:42.459Z,48.04
2023-03-25T00:33:10.956Z,47.97
2023-03-25T00:35:44.932Z,47.98
2023-03-25T00:38:13.062Z,47.97
2023-03-25T00:40:40.961Z,47.86
2023-03-25T00:43:10.872Z,47.82
2023-03-25T00:45:39.037Z,48.03
2023-03-25T00:48:07.188Z,47.95
2023-03-25T00:50:35.234Z,47.95
2023-03-25T00:53:15.299Z,48.22
2023-03-25T00:55:44.519Z,48.72
2023-03-25T00:58:12.415Z,48.66
2023-03-25T01:00:49.752Z,48.47
2023-03-25T01:03:19.540Z,48.48
2023-03-25T01:05:48.355Z,48.41
2023-03-25T01:08:17.684Z,48.30
2023-03-25T01:10:47.198Z,48.36
2023-03-25T01:13:15.328Z,48.52
2023-03-25T01:15:47.781Z,48.48
2023-03-25T01:18:17.895Z,48.23
2023-03-25T01:20:45.839Z,48.40
2023-03-25T01:23:14.320Z,48.43
2023-03-25T01:25:43.025Z,48.20
2023-03-25T01:28:11.014Z,48.19
2023-03-25T01:30:39.889Z,48.67
2023-03-25T01:33:12.512Z,48.54
2023-03-25T01:35:41.607Z,48.34
2023-03-25T01:38:13.142Z,48.62
2023-03-25T01:40:41.790Z,48.39
2023-03-25T01:43:13.370Z,48.12
2023-03-25T01:45:45.291Z,48.21
2023-03-25T01:48:35.934Z,47.76
2023-03-25T01:51:14.526Z,47.73
2023-03-25T01:53:42.434Z,48.02
2023-03-25T01:56:13.590Z,48.06
2023-03-25T01:58:41.761Z,48.28
2023-03-25T02:01:13.872Z,48.82
2023-03-25T02:03:46.056Z,49.27
2023-03-25T02:06:25.149Z,49.65
2023-03-25T02:08:53.134Z,49.25
2023-03-25T02:11:25.645Z,49.21
2023-03-25T02:13:53.895Z,49.17
2023-03-25T02:16:44.340Z,49.10
2023-03-25T02:19:19.314Z,48.92
2023-03-25T02:22:14.874Z,48.90
2023-03-25T02:25:12.767Z,48.84
2023-03-25T02:27:52.623Z,48.81
2023-03-25T02:30:26.652Z,48.84
2023-03-25T02:33:17.289Z,48.74
2023-03-25T02:36:04.349Z,48.69
2023-03-25T02:38:43.330Z,48.68
2023-03-25T02:41:39.251Z,48.77
2023-03-25T02:44:15.467Z,48.78
2023-03-25T02:46:53.845Z,48.60
2023-03-25T02:49:30.930Z,48.65
2023-03-25T02:52:06.059Z,48.36
2023-03-25T02:54:37.143Z,48.38
2023-03-25T02:57:08.000Z,48.29
2023-03-25T02:59:38.338Z,48.44
2023-03-25T03:02:09.198Z,48.44
2023-03-25T03:04:48.553Z,48.39
2023-03-25T03:07:31.947Z,48.60
2023-03-25T03:10:01.126Z,49.42
2023-03-25T03:12:54.934Z,50.52
2023-03-25T03:15:29.346Z,50.90
2023-03-25T03:18:14.423Z,51.47
2023-03-25T03:20:54.820Z,51.78
2023-03-25T03:23:26.883Z,51.91
2023-03-25T03:26:05.664Z,52.32
2023-03-25T03:28:48.112Z,52.56
2023-03-25T03:31:48.215Z,52.53
2023-03-25T03:34:34.833Z,52.59
2023-03-25T03:37:07.302Z,52.70
2023-03-25T03:39:36.830Z,52.83
2023-03-25T03:42:08.425Z,52.58
2023-03-25T03:44:38.458Z,52.62
2023-03-25T03:47:11.116Z,52.56
2023-03-25T03:49:50.553Z,52.51
2023-03-25T03:52:22.377Z,52.47
2023-03-25T03:54:56.964Z,52.69
2023-03-25T03:57:37.984Z,52.31
2023-03-25T04:00:18.179Z,52.24
2023-03-25T04:03:01.753Z,52.02
2023-03-25T04:05:32.430Z,51.94
2023-03-25T04:08:14.320Z,51.84
2023-03-25T04:10:52.847Z,51.68
2023-03-25T04:13:21.561Z,51.67
2023-03-25T04:15:51.014Z,51.55
2023-03-25T04:18:23.490Z,51.55
2023-03-25T04:20:51.532Z,51.53
2023-03-25T04:23:21.429Z,51.38
2023-03-25T04:25:55.213Z,51.47
2023-03-25T04:28:27.921Z,51.45
2023-03-25T04:30:57.629Z,51.48
2023-03-25T04:33:25.591Z,51.93
2023-03-25T04:35:54.297Z,52.49
2023-03-25T04:38:23.098Z,52.96
2023-03-25T04:40:51.125Z,53.21
2023-03-25T04:43:19.675Z,53.38
2023-03-25T04:45:55.025Z,53.64
2023-03-25T04:48:26.094Z,53.52
2023-03-25T04:50:56.068Z,53.43
2023-03-25T04:53:24.034Z,53.76
2023-03-25T04:55:52.858Z,54.04
2023-03-25T04:58:21.447Z,54.02
2023-03-25T05:00:51.798Z,54.04
2023-03-25T05:03:30.149Z,54.23
2023-03-25T05:05:58.013Z,54.16
2023-03-25T05:08:27.177Z,54.25
2023-03-25T05:10:55.416Z,53.94
2023-03-25T05:13:23.932Z,53.49
2023-03-25T05:15:54.192Z,53.70
2023-03-25T05:18:22.297Z,53.61
2023-03-25T05:21:00.979Z,53.35
2023-03-25T05:23:31.770Z,53.06
2023-03-25T05:25:59.870Z,53.00
2023-03-25T05:28:31.062Z,52.88
2023-03-25T05:30:59.541Z,52.66
2023-03-25T05:33:29.316Z,52.43
2023-03-25T05:35:57.789Z,52.44
2023-03-25T05:38:26.169Z,52.21
2023-03-25T05:40:54.066Z,51.99
2023-03-25T05:43:29.352Z,51.84
2023-03-25T05:45:57.902Z,51.67
2023-03-25T05:48:26.566Z,51.56
2023-03-25T05:50:56.706Z,51.57
2023-03-25T05:53:26.312Z,51.65
2023-03-25T05:55:54.216Z,51.82
2023-03-25T05:58:25.233Z,51.95
2023-03-25T06:00:54.723Z,51.99
2023-03-25T06:03:26.158Z,51.71
2023-03-25T06:05:54.947Z,51.65
2023-03-25T06:08:26.544Z,51.68
2023-03-25T06:11:00.891Z,51.62
2023-03-25T06:13:34.054Z,51.42
2023-03-25T06:16:03.443Z,51.28
2023-03-25T06:18:32.832Z,51.05
2023-03-25T06:21:00.691Z,50.83
2023-03-25T06:23:29.153Z,50.53
2023-03-25T06:25:58.709Z,50.68
2023-03-25T06:28:28.416Z,50.52
2023-03-25T06:30:59.929Z,50.43
2023-03-25T06:33:48.631Z,50.58
2023-03-25T06:36:18.842Z,50.54
2023-03-25T06:38:50.427Z,50.50
2023-03-25T06:41:20.869Z,50.50
2023-03-25T06:43:58.732Z,50.13
2023-03-25T06:46:49.178Z,49.99
2023-03-25T06:49:30.329Z,49.88
2023-03-25T06:51:58.646Z,49.76
2023-03-25T06:54:26.546Z,49.62
2023-03-25T06:56:55.411Z,49.61
2023-03-25T06:59:23.503Z,49.59
2023-03-25T07:01:52.088Z,49.47
2023-03-25T07:04:20.373Z,49.39
2023-03-25T07:06:57.920Z,49.43
2023-03-25T07:09:26.092Z,49.29
2023-03-25T07:11:53.996Z,49.24
2023-03-25T07:14:29.471Z,49.12
2023-03-25T07:16:57.695Z,48.74
2023-03-25T07:19:32.069Z,48.47
2023-03-25T07:22:02.993Z,48.31
2023-03-25T07:24:31.781Z,48.18
2023-03-25T07:26:59.944Z,48.11
2023-03-25T07:29:28.552Z,47.90
2023-03-25T07:31:57.768Z,47.92
2023-03-25T07:34:25.903Z,48.08
2023-03-25T07:36:53.768Z,48.25
2023-03-25T07:39:22.197Z,48.07
2023-03-25T07:41:52.160Z,48.01
2023-03-25T07:44:33.760Z,48.08
2023-03-25T07:47:07.977Z,47.93
2023-03-25T07:49:36.681Z,48.06
2023-03-25T07:52:04.663Z,47.96
2023-03-25T07:54:32.643Z,47.72
2023-03-25T07:57:00.842Z,47.80
2023-03-25T07:59:30.444Z,47.96
2023-03-25T08:01:58.723Z,47.91
2023-03-25T08:04:26.708Z,47.76
2023-03-25T08:06:57.026Z,47.66
2023-03-25T08:09:25.303Z,47.64
2023-03-25T08:11:53.662Z,47.66
2023-03-25T08:14:22.502Z,47.62
2023-03-25T08:16:50.896Z,46.95
2023-03-25T08:19:18.922Z,46.91
2023-03-25T08:21:48.628Z,46.74
2023-03-25T08:24:16.788Z,46.57
2023-03-25T08:26:44.945Z,46.58
2023-03-25T08:29:14.912Z,46.43
2023-03-25T08:31:47.042Z,46.57
2023-03-25T08:34:17.087Z,46.35
2023-03-25T08:36:46.168Z,46.42
2023-03-25T08:39:17.543Z,46.60
2023-03-25T08:41:45.544Z,46.54
2023-03-25T08:44:13.493Z,46.65
2023-03-25T08:46:41.504Z,46.68
2023-03-25T08:49:10.284Z,46.60
2023-03-25T08:51:43.357Z,46.55
2023-03-25T08:54:11.537Z,46.57
2023-03-25T08:56:39.600Z,46.82
2023-03-25T08:59:12.998Z,46.73
2023-03-25T09:01:42.301Z,46.58
2023-03-25T09:04:11.377Z,46.64
2023-03-25T09:06:47.460Z,46.56
2023-03-25T09:09:18.234Z,46.64
2023-03-25T09:11:48.584Z,46.46
2023-03-25T09:14:16.492Z,46.21
2023-03-25T09:16:44.416Z,46.17
2023-03-25T09:19:12.523Z,46.06
2023-03-25T09:21:42.712Z,45.62
2023-03-25T09:24:10.559Z,45.09
2023-03-25T09:26:39.260Z,44.86
2023-03-25T09:29:07.623Z,44.60
2023-03-25T09:31:41.061Z,44.60
2023-03-25T09:34:09.773Z,44.85
2023-03-25T09:36:38.230Z,44.76
2023-03-25T09:39:08.448Z,44.86
2023-03-25T09:42:14.764Z,44.94
2023-03-25T09:45:19.637Z,44.49
2023-03-25T09:47:59.628Z,44.46
2023-03-25T09:50:29.636Z,44.53
2023-03-25T09:53:12.442Z,44.81
2023-03-25T09:55:42.607Z,45.19
2023-03-25T09:58:24.631Z,45.19
2023-03-25T10:01:28.199Z,45.28
2023-03-25T10:04:06.673Z,45.47
2023-03-25T10:06:43.704Z,45.57
2023-03-25T10:09:20.383Z,45.57
2023-03-25T10:12:05.713Z,45.65
2023-03-25T10:15:31.377Z,46.24
2023-03-25T10:18:07.077Z,45.67
2023-03-25T10:20:51.686Z,45.46
2023-03-25T10:23:32.069Z,45.44
2023-03-25T10:26:06.663Z,45.50
2023-03-25T10:28:43.628Z,45.47
2023-03-25T10:31:15.975Z,45.48
2023-03-25T10:33:52.519Z,45.57
2023-03-25T10:36:22.953Z,45.71
2023-03-25T10:38:54.433Z,45.90
2023-03-25T10:41:30.980Z,45.83
2023-03-25T10:43:58.894Z,45.76
2023-03-25T10:46:47.860Z,45.68
2023-03-25T10:49:21.124Z,45.66
2023-03-25T10:51:53.036Z,45.83
2023-03-25T10:54:25.227Z,45.62
2023-03-25T10:56:53.349Z,45.56
2023-03-25T10:59:21.450Z,45.39
2023-03-25T11:01:49.430Z,45.28
2023-03-25T11:04:19.902Z,44.93
2023-03-25T11:06:55.563Z,44.57
2023-03-25T11:09:30.390Z,44.49
2023-03-25T11:12:05.168Z,44.31
2023-03-25T11:14:38.857Z,43.93
2023-03-25T11:17:15.323Z,43.94
2023-03-25T11:19:52.487Z,43.78
2023-03-25T11:22:24.827Z,43.73
2023-03-25T11:24:57.378Z,43.29
2023-03-25T11:27:28.627Z,43.06
2023-03-25T11:30:03.740Z,42.98
2023-03-25T11:32:38.431Z,42.63
2023-03-25T11:35:18.518Z,41.77
2023-03-25T11:37:49.358Z,41.70
2023-03-25T11:40:18.689Z,42.33
2023-03-25T11:42:54.957Z,42.55
2023-03-25T11:45:39.179Z,42.75
2023-03-25T11:48:16.383Z,43.47
2023-03-25T11:50:52.871Z,43.84
2023-03-25T11:53:27.596Z,43.93
2023-03-25T11:56:02.178Z,43.88
2023-03-25T11:58:33.664Z,43.89
2023-03-25T12:01:17.818Z,43.85
2023-03-25T12:03:46.145Z,43.48
2023-03-25T12:06:22.165Z,43.33
2023-03-25T12:08:58.429Z,43.36
2023-03-25T12:11:50.885Z,43.65
2023-03-25T12:14:33.569Z,43.95
2023-03-25T12:17:06.420Z,44.17
2023-03-25T12:19:43.244Z,44.50
2023-03-25T12:22:14.368Z,44.62
2023-03-25T12:24:59.170Z,44.78
2023-03-25T12:27:27.467Z,45.26
2023-03-25T12:30:17.472Z,45.83
2023-03-25T12:32:58.509Z,46.54
2023-03-25T12:35:43.982Z,47.11
2023-03-25T12:38:36.515Z,47.44
2023-03-25T12:41:32.922Z,47.56
2023-03-25T12:44:21.996Z,47.29
2023-03-25T12:46:56.236Z,48.22
2023-03-25T12:49:40.526Z,48.36
2023-03-25T12:52:26.949Z,48.82
2023-03-25T12:55:16.124Z,49.02
2023-03-25T12:58:26.104Z,49.25
2023-03-25T13:01:23.288Z,49.24
2023-03-25T13:04:00.612Z,49.62
2023-03-25T13:07:02.950Z,50.30
2023-03-25T13:09:36.135Z,51.30
2023-03-25T13:12:05.467Z,51.69
2023-03-25T13:14:36.900Z,51.83
2023-03-25T13:17:13.083Z,51.64
2023-03-25T13:19:44.376Z,51.61
2023-03-25T13:22:24.829Z,51.59
2023-03-25T13:24:55.760Z,51.75
2023-03-25T13:27:24.957Z,51.41
2023-03-25T13:29:54.909Z,51.81
2023-03-25T13:32:50.621Z,51.47
2023-03-25T13:35:38.699Z,51.80
2023-03-25T13:38:13.135Z,51.67
2023-03-25T13:40:52.361Z,51.11
2023-03-25T13:43:47.497Z,50.72
2023-03-25T13:46:18.761Z,50.96
2023-03-25T13:48:56.111Z,51.08
2023-03-25T13:51:24.242Z,50.54
2023-03-25T13:53:58.389Z,50.10
2023-03-25T13:57:07.998Z,49.23
2023-03-25T13:59:48.552Z,48.86
2023-03-25T14:02:39.106Z,48.68
2023-03-25T14:05:44.872Z,48.32
2023-03-25T14:08:20.801Z,48.35
2023-03-25T14:10:54.284Z,48.75
2023-03-25T14:14:03.559Z,48.63
2023-03-25T14:16:36.404Z,48.63
2023-03-25T14:19:07.610Z,48.70
2023-03-25T14:21:38.543Z,48.61
2023-03-25T14:24:31.578Z,48.94
2023-03-25T14:27:01.972Z,49.05
2023-03-25T14:29:55.290Z,49.06
2023-03-25T14:32:23.851Z,48.95
2023-03-25T14:34:52.371Z,49.04
2023-03-25T14:37:27.691Z,49.07
2023-03-25T14:39:59.418Z,49.27
2023-03-25T14:42:59.725Z,49.35
2023-03-25T14:45:50.941Z,49.15
2023-03-25T14:48:34.617Z,49.25
2023-03-25T14:51:23.437Z,49.36
2023-03-25T14:54:20.448Z,49.69
2023-03-25T14:56:55.041Z,49.85
2023-03-25T14:59:31.154Z,50.06
2023-03-25T15:02:04.102Z,50.38
2023-03-25T15:04:34.220Z,50.53
2023-03-25T15:07:11.579Z,50.78
2023-03-25T15:09:50.622Z,50.95
2023-03-25T15:12:20.182Z,51.14
2023-03-25T15:14:49.332Z,51.04
2023-03-25T15:17:39.288Z,51.05
2023-03-25T15:20:12.148Z,51.07
2023-03-25T15:22:40.629Z,51.22
2023-03-25T15:25:15.158Z,51.25
2023-03-25T15:28:11.228Z,51.27
2023-03-25T15:30:46.349Z,51.35
2023-03-25T15:33:56.546Z,51.52
2023-03-25T15:36:54.162Z,51.85
2023-03-25T15:39:21.973Z,51.99
2023-03-25T15:42:23.849Z,52.13
2023-03-25T15:44:58.801Z,52.40
2023-03-25T15:47:36.283Z,53.05
2023-03-25T15:50:36.432Z,53.99
2023-03-25T15:53:10.802Z,53.69
2023-03-25T15:55:46.305Z,54.11
2023-03-25T15:58:23.201Z,54.47
2023-03-25T16:00:53.164Z,54.78
2023-03-25T16:03:24.383Z,55.00
2023-03-25T16:05:59.617Z,54.53
2023-03-25T16:08:37.555Z,54.60
2023-03-25T16:11:19.401Z,55.11
2023-03-25T16:13:47.980Z,55.51
2023-03-25T16:16:17.435Z,55.84
2023-03-25T16:18:46.820Z,55.37
2023-03-25T16:21:14.691Z,55.48
2023-03-25T16:24:05.061Z,55.85
2023-03-25T16:26:44.503Z,56.00
2023-03-25T16:29:23.784Z,56.31
2023-03-25T16:31:53.103Z,56.16
2023-03-25T16:34:21.200Z,56.35
2023-03-25T16:36:50.874Z,56.99
2023-03-25T16:39:19.063Z,57.32
2023-03-25T16:41:50.865Z,57.69
2023-03-25T16:44:22.051Z,57.54
2023-03-25T16:46:51.791Z,58.05
2023-03-25T16:49:34.090Z,58.41
2023-03-25T16:52:04.132Z,58.42
2023-03-25T16:54:37.939Z,58.18
2023-03-25T16:57:07.570Z,58.04
2023-03-25T16:59:36.942Z,58.03
2023-03-25T17:02:22.785Z,58.13
2023-03-25T17:04:51.134Z,58.13
2023-03-25T17:07:20.891Z,58.39
2023-03-25T17:09:54.683Z,58.33
2023-03-25T17:12:23.308Z,58.48
2023-03-25T17:14:52.561Z,59.11
2023-03-25T17:17:41.661Z,59.61
2023-03-25T17:20:18.053Z,60.09
2023-03-25T17:23:08.324Z,59.62
2023-03-25T17:26:20.109Z,59.95
2023-03-25T17:28:54.909Z,60.36
2023-03-25T17:31:39.139Z,60.31
2023-03-25T17:34:17.620Z,60.38
2023-03-25T17:36:47.818Z,60.75
2023-03-25T17:39:24.961Z,60.75
2023-03-25T17:41:56.445Z,60.45
2023-03-25T17:44:25.981Z,60.16
2023-03-25T17:46:59.972Z,60.44
2023-03-25T17:49:28.251Z,60.79
2023-03-25T17:51:58.188Z,61.13
2023-03-25T17:54:27.125Z,61.62
2023-03-25T17:56:55.592Z,62.02
2023-03-25T17:59:30.916Z,62.79
2023-03-25T18:01:59.028Z,63.21
2023-03-25T18:04:26.995Z,63.58
2023-03-25T18:06:55.940Z,63.34
2023-03-25T18:09:24.409Z,63.10
2023-03-25T18:11:54.576Z,63.05
2023-03-25T18:14:25.136Z,63.70
2023-03-25T18:16:53.957Z,64.20
2023-03-25T18:19:24.066Z,63.85
2023-03-25T18:21:52.425Z,63.80
2023-03-25T18:24:22.038Z,64.03
2023-03-25T18:26:49.964Z,64.28
2023-03-25T18:29:24.330Z,64.39
2023-03-25T18:31:52.817Z,64.43
2023-03-25T18:34:21.228Z,64.79
2023-03-25T18:36:49.594Z,65.50
2023-03-25T18:39:19.342Z,65.39
2023-03-25T18:41:48.317Z,65.66
2023-03-25T18:44:16.740Z,66.13
2023-03-25T18:46:55.297Z,66.30
2023-03-25T18:49:23.853Z,66.32
2023-03-25T18:51:51.845Z,66.10
2023-03-25T18:54:19.946Z,66.06
2023-03-25T18:56:48.181Z,66.31
2023-03-25T18:59:20.778Z,66.57
2023-03-25T19:01:49.298Z,66.55
2023-03-25T19:04:18.280Z,66.35
2023-03-25T19:06:46.581Z,66.46
2023-03-25T19:09:18.477Z,66.74
2023-03-25T19:11:47.268Z,67.07
2023-03-25T19:14:15.534Z,67.15
2023-03-25T19:16:57.202Z,67.03
2023-03-25T19:19:31.754Z,67.16
2023-03-25T19:22:00.759Z,67.64
2023-03-25T19:24:28.718Z,67.80
2023-03-25T19:26:57.567Z,68.16
2023-03-25T19:29:26.291Z,68.47
2023-03-25T19:31:54.303Z,68.58
2023-03-25T19:34:24.586Z,68.90
2023-03-25T19:36:53.366Z,69.34
2023-03-25T19:39:22.932Z,69.60
2023-03-25T19:41:52.943Z,69.56
2023-03-25T19:44:21.492Z,69.58
2023-03-25T19:46:52.990Z,70.22
2023-03-25T19:49:36.328Z,70.78
2023-03-25T19:52:07.875Z,70.64
2023-03-25T19:54:35.753Z,70.88
2023-03-25T19:57:03.837Z,71.29
2023-03-25T19:59:37.099Z,71.81
2023-03-25T20:02:05.588Z,71.77
2023-03-25T20:04:34.194Z,71.83
2023-03-25T20:07:04.409Z,72.14
2023-03-25T20:09:32.431Z,72.48
2023-03-25T20:12:00.380Z,72.18
2023-03-25T20:14:30.261Z,72.38
2023-03-25T20:16:58.737Z,72.79
2023-03-25T20:19:27.063Z,73.04
2023-03-25T20:21:55.298Z,72.81
2023-03-25T20:24:23.393Z,72.63
2023-03-25T20:26:51.260Z,72.79
2023-03-25T20:29:19.961Z,72.90
2023-03-25T20:31:48.240Z,72.72
2023-03-25T20:34:19.926Z,72.69
2023-03-25T20:36:50.050Z,73.00
2023-03-25T20:39:18.051Z,72.89
2023-03-25T20:41:46.098Z,72.59
2023-03-25T20:44:14.013Z,72.49
2023-03-25T20:46:46.350Z,72.73
2023-03-25T20:49:15.603Z,72.79
2023-03-25T20:51:48.112Z,72.85
2023-03-25T20:54:17.761Z,72.73
2023-03-25T20:56:48.642Z,73.08
2023-03-25T20:59:18.471Z,73.25
2023-03-25T21:01:50.855Z,73.10
2023-03-25T21:04:22.537Z,73.16
2023-03-25T21:06:51.397Z,73.53
2023-03-25T21:09:19.346Z,73.47
2023-03-25T21:11:48.812Z,73.29
2023-03-25T21:14:18.438Z,73.12
2023-03-25T21:16:46.593Z,73.44
2023-03-25T21:19:15.690Z,73.69
2023-03-25T21:21:44.028Z,73.55
2023-03-25T21:24:14.066Z,73.38
2023-03-25T21:26:42.448Z,73.78
2023-03-25T21:29:10.388Z,74.03
2023-03-25T21:31:38.600Z,73.85
2023-03-25T21:34:06.659Z,73.78
2023-03-25T21:36:34.790Z,73.93
2023-03-25T21:39:04.583Z,74.07
2023-03-25T21:41:34.959Z,73.88
2023-03-25T21:44:02.903Z,73.68
2023-03-25T21:46:33.599Z,73.68
2023-03-25T21:49:03.977Z,74.09
2023-03-25T21:51:32.459Z,73.79
2023-03-25T21:54:00.722Z,73.37
2023-03-25T21:56:31.591Z,73.17
2023-03-25T21:59:02.023Z,73.11
2023-03-25T22:01:32.603Z,73.02
2023-03-25T22:04:01.108Z,72.63
2023-03-25T22:06:31.534Z,72.47
2023-03-25T22:09:03.751Z,73.13
2023-03-25T22:11:33.981Z,72.85
2023-03-25T22:14:02.460Z,72.99
2023-03-25T22:16:35.970Z,73.75
2023-03-25T22:19:04.911Z,73.89
2023-03-25T22:21:34.577Z,73.72
2023-03-25T22:24:05.337Z,74.13
2023-03-25T22:26:33.823Z,74.69
2023-03-25T22:29:06.132Z,74.35
2023-03-25T22:32:53.808Z,75.81
2023-03-25T22:35:23.943Z,75.16
2023-03-25T22:37:55.617Z,74.93
2023-03-25T22:40:23.698Z,74.64
2023-03-25T22:42:52.282Z,74.78
2023-03-25T22:45:20.970Z,75.14
2023-03-25T22:47:49.743Z,74.81
2023-03-25T22:50:17.685Z,74.72
2023-03-25T22:52:47.264Z,75.04
2023-03-25T22:55:15.475Z,74.95
2023-03-25T22:57:43.442Z,74.70
2023-03-25T23:00:14.789Z,75.05
2023-03-25T23:02:44.125Z,75.75
2023-03-25T23:05:14.802Z,75.66
2023-03-25T23:07:42.831Z,75.55
2023-03-25T23:10:13.735Z,76.09
2023-03-25T23:12:41.858Z,76.40
2023-03-25T23:15:14.185Z,76.22
2023-03-25T23:17:43.870Z,76.29
2023-03-25T23:20:11.859Z,77.05
2023-03-25T23:22:43.899Z,77.16
2023-03-25T23:25:12.530Z,76.81
2023-03-25T23:27:40.530Z,77.12
2023-03-25T23:30:08.973Z,77.78
2023-03-25T23:32:37.027Z,77.30
2023-03-25T23:35:05.371Z,77.18
2023-03-25T23:37:34.670Z,77.75
2023-03-25T23:40:04.361Z,77.69
2023-03-25T23:42:35.168Z,77.44
2023-03-25T23:45:04.782Z,77.80
2023-03-25T23:47:33.212Z,78.40
2023-03-25T23:50:02.186Z,78.21
2023-03-25T23:52:30.940Z,78.09
2023-03-25T23:54:59.175Z,78.13
2023-03-25T23:57:27.167Z,78.75
2023-03-25T23:59:55.711Z,78.84
